Time;durP1;ratioP1;P1;durP2;ratioP2;P2;SDS_P1;SDS_P2;PMS_P1;PMS_P2;Temp;Humidity;BMP_temperature;BMP_pressure;BME280_temperature;BME280_humidity;BME280_pressure;Samples;Min_cycle;Max_cycle;Signal;HPM_P1;HPM_P2
2023/01/01 00:01:51;;;;;;;9.40;4.50;;;;;;;14.78;53.61;100757.25;5022592;28;20362;-83
2023/01/01 00:04:17;;;;;;;13.18;4.75;;;;;;;14.80;53.71;100765.06;5024722;28;20037;-88
2023/01/01 00:06:42;;;;;;;14.43;4.30;;;;;;;14.82;53.92;100763.22;5024038;28;20034;-83
2023/01/01 00:11:52;;;;;;;12.07;4.10;;;;;;;14.80;53.65;100772.91;5025034;28;20127;-84
2023/01/01 00:14:17;;;;;;;13.07;3.90;;;;;;;14.78;53.88;100764.28;5027990;28;20091;-83
2023/01/01 00:16:42;;;;;;;9.13;3.80;;;;;;;14.77;53.43;100773.06;5025648;28;20051;-82
2023/01/01 00:19:08;;;;;;;9.90;3.50;;;;;;;14.75;53.69;100761.78;5027118;28;20218;-82
2023/01/01 00:21:33;;;;;;;8.35;3.25;;;;;;;14.72;53.90;100773.25;5024431;28;20032;-84
2023/01/01 00:23:58;;;;;;;10.23;3.25;;;;;;;14.74;53.60;100788.91;5031045;28;20542;-83
2023/01/01 00:26:25;;;;;;;8.48;3.20;;;;;;;14.75;53.68;100778.38;5035017;28;20026;-85
2023/01/01 00:28:50;;;;;;;11.45;3.00;;;;;;;14.74;53.59;100765.31;5030981;28;20036;-83
2023/01/01 00:31:18;;;;;;;10.68;3.10;;;;;;;14.75;53.08;100788.84;5030061;28;20033;-86
2023/01/01 00:33:44;;;;;;;11.40;2.90;;;;;;;14.75;53.06;100790.59;5029443;28;20074;-86
2023/01/01 00:36:11;;;;;;;8.88;2.70;;;;;;;14.71;52.45;100780.25;5019079;28;20033;-83
2023/01/01 00:38:37;;;;;;;8.48;2.60;;;;;;;14.74;52.25;100783.66;5030323;28;20033;-86
2023/01/01 00:41:03;;;;;;;10.27;2.58;;;;;;;14.76;52.53;100774.84;5025112;28;20033;-84
2023/01/01 00:43:28;;;;;;;12.63;2.95;;;;;;;14.79;51.78;100777.28;5022592;28;20049;-83
2023/01/01 00:45:54;;;;;;;14.55;3.00;;;;;;;14.76;53.21;100771.34;5023481;28;20481;-82
2023/01/01 00:48:20;;;;;;;10.82;2.50;;;;;;;14.80;52.62;100797.31;5027142;28;20033;-85
2023/01/01 00:50:50;;;;;;;11.27;2.58;;;;;;;14.81;52.92;100749.28;5027878;28;20120;-83
2023/01/01 00:53:20;;;;;;;6.32;2.25;;;;;;;14.80;52.39;100771.13;5024205;28;20501;-84
2023/01/01 00:55:48;;;;;;;9.40;2.33;;;;;;;14.78;52.51;100765.13;5022211;28;20025;-83
2023/01/01 00:58:14;;;;;;;5.43;2.10;;;;;;;14.77;52.27;100770.44;5021921;28;20022;-84
2023/01/01 01:00:44;;;;;;;12.52;2.50;;;;;;;14.71;53.03;100764.53;5022659;28;20013;-83
2023/01/01 01:03:26;;;;;;;11.32;2.55;;;;;;;14.68;52.14;100749.00;5028893;28;20021;-83
2023/01/01 01:06:14;;;;;;;6.88;2.22;;;;;;;14.75;52.89;100759.16;5026333;28;20052;-84
2023/01/01 01:08:42;;;;;;;7.43;2.15;;;;;;;14.74;51.92;100773.19;5026494;28;20018;-83
2023/01/01 01:11:12;;;;;;;6.43;1.80;;;;;;;14.78;52.32;100791.31;5027761;28;20032;-84
2023/01/01 01:13:38;;;;;;;4.50;1.75;;;;;;;14.81;51.80;100772.00;5023685;28;20033;-86
2023/01/01 01:16:22;;;;;;;8.63;2.20;;;;;;;14.82;52.35;100776.31;5028416;28;20025;-83
2023/01/01 01:18:59;;;;;;;8.75;1.92;;;;;;;14.78;52.76;100793.09;5025582;28;20181;-85
2023/01/01 01:21:26;;;;;;;6.13;1.75;;;;;;;14.80;51.90;100786.00;5037145;28;20100;-85
2023/01/01 01:23:53;;;;;;;8.55;1.83;;;;;;;14.81;51.82;100769.38;5032607;28;20025;-83
2023/01/01 01:26:24;;;;;;;7.10;1.75;;;;;;;14.82;52.23;100771.09;5029429;28;20373;-83
2023/01/01 01:28:51;;;;;;;7.57;2.08;;;;;;;14.80;52.45;100770.31;5030757;28;20028;-84
2023/01/01 01:31:17;;;;;;;7.88;1.70;;;;;;;14.77;52.90;100778.28;5031427;28;20025;-81
2023/01/01 01:33:51;;;;;;;8.63;1.58;;;;;;;14.71;52.84;100772.41;5033555;28;20476;-84
2023/01/01 01:36:17;;;;;;;9.52;1.75;;;;;;;14.68;52.73;100796.13;5034367;28;20087;-84
2023/01/01 01:38:48;;;;;;;6.65;1.70;;;;;;;14.62;52.91;100791.13;5033984;28;20026;-82
2023/01/01 01:41:16;;;;;;;8.43;1.88;;;;;;;14.61;52.45;100789.41;5031356;28;20499;-83
2023/01/01 01:43:42;;;;;;;7.40;1.88;;;;;;;14.63;52.35;100807.66;5031932;28;20079;-84
2023/01/01 01:46:19;;;;;;;5.45;1.63;;;;;;;14.63;52.51;100812.88;5032324;28;20033;-84
2023/01/01 01:48:49;;;;;;;5.43;1.80;;;;;;;14.55;52.42;100805.38;5029886;28;20033;-83
2023/01/01 01:51:19;;;;;;;8.23;1.75;;;;;;;14.48;52.37;100786.47;5033208;28;20526;-83
2023/01/01 01:53:52;;;;;;;6.88;1.98;;;;;;;14.44;53.14;100784.06;5032259;28;20036;-82
2023/01/01 01:56:59;;;;;;;5.90;1.77;;;;;;;14.37;53.02;100813.09;5032160;28;20037;-84
2023/01/01 01:59:30;;;;;;;6.30;1.83;;;;;;;14.36;52.77;100813.16;5014345;28;20037;-85
2023/01/01 02:01:56;;;;;;;5.75;1.60;;;;;;;14.37;52.87;100820.94;5024576;28;20480;-84
2023/01/01 02:04:22;;;;;;;7.75;2.10;;;;;;;14.34;52.76;100813.25;5026235;28;20038;-82
2023/01/01 02:06:49;;;;;;;8.15;1.83;;;;;;;14.30;52.82;100827.38;5031723;28;20132;-81
2023/01/01 02:09:14;;;;;;;7.43;2.05;;;;;;;14.30;53.28;100822.13;5032671;28;20384;-83
2023/01/01 02:11:42;;;;;;;11.77;2.03;;;;;;;14.24;53.28;100823.25;5032342;28;20405;-82
2023/01/01 02:14:08;;;;;;;8.13;1.90;;;;;;;14.21;53.63;100827.72;5031002;28;20029;-82
2023/01/01 02:16:46;;;;;;;7.32;1.70;;;;;;;14.21;53.75;100860.00;5033731;28;20097;-83
2023/01/01 02:19:36;;;;;;;7.78;1.63;;;;;;;14.24;53.16;100838.94;5033393;28;20183;-84
2023/01/01 02:22:53;;;;;;;4.60;1.55;;;;;;;14.18;53.70;100844.41;5018700;28;20022;-83
2023/01/01 02:25:36;;;;;;;6.68;1.63;;;;;;;14.23;53.11;100839.00;5025333;28;20116;-85
2023/01/01 02:28:07;;;;;;;4.47;1.50;;;;;;;14.17;53.04;100836.66;5032212;28;20029;-82
2023/01/01 02:30:35;;;;;;;5.80;1.50;;;;;;;14.11;53.40;100828.13;5033004;28;20112;-83
2023/01/01 02:33:08;;;;;;;7.07;1.70;;;;;;;14.07;53.63;100816.06;5032192;28;20034;-84
2023/01/01 02:35:41;;;;;;;6.25;1.70;;;;;;;14.07;53.56;100836.16;5030206;28;20029;-83
2023/01/01 02:38:12;;;;;;;4.13;1.40;;;;;;;14.08;53.43;100838.69;5030412;28;20458;-82
2023/01/01 02:40:42;;;;;;;9.10;1.90;;;;;;;14.08;53.21;100827.41;5031970;28;20030;-81
2023/01/01 02:43:08;;;;;;;6.55;1.83;;;;;;;14.08;53.02;100828.25;5033147;28;20033;-84
2023/01/01 02:45:33;;;;;;;4.53;1.40;;;;;;;14.03;53.29;100829.34;5032149;28;20061;-83
2023/01/01 02:48:25;;;;;;;6.32;1.40;;;;;;;14.01;53.75;100841.63;5032625;28;20033;-84
2023/01/01 02:50:51;;;;;;;3.47;1.40;;;;;;;13.98;54.07;100832.16;5033844;28;20503;-82
2023/01/01 02:53:40;;;;;;;6.30;1.48;;;;;;;13.98;54.22;100820.81;5031811;28;20029;-82
2023/01/01 02:56:10;;;;;;;2.33;1.13;;;;;;;13.97;54.06;100827.84;5029481;28;20025;-85
2023/01/01 03:02:19;;;;;;;8.95;1.45;;;;;;;14.00;53.96;100850.38;5032618;28;20047;-82
2023/01/01 03:05:17;;;;;;;5.50;1.30;;;;;;;14.04;53.62;100842.34;5015008;28;20485;-85
2023/01/01 03:07:57;;;;;;;4.20;1.50;;;;;;;14.01;53.83;100847.69;5022697;28;20035;-83
2023/01/01 03:10:28;;;;;;;6.00;1.45;;;;;;;14.01;53.88;100842.47;5032530;28;20428;-84
2023/01/01 03:13:03;;;;;;;7.28;1.65;;;;;;;14.02;53.81;100859.88;5031768;28;20051;-84
2023/01/01 03:15:41;;;;;;;4.93;1.23;;;;;;;13.99;54.04;100857.41;5032116;28;20101;-82
2023/01/01 03:18:15;;;;;;;5.43;1.25;;;;;;;13.94;54.14;100854.09;5032059;28;20029;-81
2023/01/01 03:20:46;;;;;;;2.88;1.20;;;;;;;13.95;54.27;100853.19;5031533;28;20511;-82
2023/01/01 03:23:20;;;;;;;6.65;1.65;;;;;;;13.92;54.56;100856.75;5030407;28;20423;-84
2023/01/01 03:25:50;;;;;;;4.03;1.30;;;;;;;13.91;54.91;100856.84;5017953;28;20570;-82
2023/01/01 03:28:21;;;;;;;4.63;1.20;;;;;;;13.90;54.30;100870.81;5029339;28;20041;-83
2023/01/01 03:30:50;;;;;;;3.67;1.20;;;;;;;13.88;54.46;100873.50;5033181;28;20411;-83
2023/01/01 03:33:32;;;;;;;5.57;1.38;;;;;;;13.88;55.10;100862.19;5032210;28;20079;-83
2023/01/01 03:36:10;;;;;;;4.40;1.10;;;;;;;13.85;55.20;100873.63;5031229;28;20112;-82
2023/01/01 03:39:01;;;;;;;3.33;1.10;;;;;;;13.83;55.24;100880.69;5031166;28;20025;-83
2023/01/01 03:41:35;;;;;;;5.90;1.20;;;;;;;13.86;54.87;100859.63;5031597;28;20032;-84
2023/01/01 03:44:03;;;;;;;5.22;1.20;;;;;;;13.84;55.31;100855.38;5032930;28;20107;-83
2023/01/01 03:46:31;;;;;;;6.13;1.20;;;;;;;13.81;55.59;100867.69;5029607;28;20468;-83
2023/01/01 03:48:56;;;;;;;3.45;1.25;;;;;;;13.79;55.70;100874.72;5032171;28;20076;-84
2023/01/01 03:51:26;;;;;;;5.10;1.10;;;;;;;13.83;55.73;100858.91;5030911;28;20485;-83
2023/01/01 03:53:55;;;;;;;3.63;1.20;;;;;;;13.82;55.68;100889.44;5030895;28;20018;-85
2023/01/01 03:56:34;;;;;;;5.18;1.30;;;;;;;13.84;55.61;100891.97;5031367;28;20029;-84
2023/01/01 03:59:24;;;;;;;2.72;1.05;;;;;;;13.80;55.98;100888.63;5031031;28;20098;-82
2023/01/01 04:01:55;;;;;;;2.95;1.00;;;;;;;13.80;55.86;100899.09;5030647;28;20091;-84
2023/01/01 04:04:23;;;;;;;5.75;1.20;;;;;;;13.80;55.94;100899.09;5032020;28;20021;-83
2023/01/01 04:06:48;;;;;;;4.70;1.30;;;;;;;13.76;56.29;100885.28;5031114;28;20038;-83
2023/01/01 04:09:22;;;;;;;3.80;1.20;;;;;;;13.77;56.33;100902.69;5029686;28;20033;-83
2023/01/01 04:12:03;;;;;;;5.60;1.20;;;;;;;13.77;56.14;100897.47;5030759;28;20115;-83
2023/01/01 04:14:34;;;;;;;6.13;1.15;;;;;;;13.80;56.16;100901.72;5031759;28;20029;-84
2023/01/01 04:17:01;;;;;;;4.78;1.42;;;;;;;13.76;56.99;100900.97;5031021;28;20427;-83
2023/01/01 04:19:27;;;;;;;5.47;1.30;;;;;;;13.74;56.81;100915.03;5030756;28;20104;-83
2023/01/01 04:21:52;;;;;;;3.80;1.10;;;;;;;13.74;56.74;100923.72;5032454;28;20030;-84
2023/01/01 04:24:17;;;;;;;4.30;1.17;;;;;;;13.72;56.94;100925.53;5030716;28;20105;-83
2023/01/01 04:26:43;;;;;;;8.05;1.27;;;;;;;13.69;57.31;100919.56;5030600;28;20112;-84
2023/01/01 04:29:08;;;;;;;7.30;1.50;;;;;;;13.71;56.71;100902.06;5031100;28;20495;-83
2023/01/01 04:31:34;;;;;;;3.42;1.27;;;;;;;13.68;57.38;100913.47;5031285;28;20029;-82
2023/01/01 04:34:00;;;;;;;4.90;1.30;;;;;;;13.70;57.11;100909.03;5030580;28;20500;-83
2023/01/01 04:36:26;;;;;;;7.93;1.40;;;;;;;13.68;57.99;100883.88;5034322;28;20021;-82
2023/01/01 04:38:51;;;;;;;5.43;1.45;;;;;;;13.62;57.95;100901.50;5034573;28;20022;-82
2023/01/01 04:41:16;;;;;;;7.25;1.35;;;;;;;13.62;57.80;100911.13;5035450;28;20580;-82
2023/01/01 04:43:48;;;;;;;6.50;1.35;;;;;;;13.63;57.89;100915.44;5034836;28;20037;-83
2023/01/01 04:46:13;;;;;;;5.93;1.27;;;;;;;13.62;57.81;100924.19;5033084;28;20033;-82
2023/01/01 04:48:39;;;;;;;5.55;1.40;;;;;;;13.60;58.08;100924.22;5033984;28;20427;-83
2023/01/01 04:51:04;;;;;;;5.47;1.27;;;;;;;13.61;58.29;100920.69;5033554;28;20550;-84
2023/01/01 04:53:32;;;;;;;5.93;1.25;;;;;;;13.62;58.17;100919.78;5037907;28;20028;-83
2023/01/01 04:56:04;;;;;;;4.68;1.20;;;;;;;13.60;58.44;100928.63;5031355;28;20057;-83
2023/01/01 04:58:30;;;;;;;6.25;1.40;;;;;;;13.58;59.02;100923.41;5034671;28;20096;-82
2023/01/01 05:00:55;;;;;;;4.93;1.20;;;;;;;13.56;58.82;100927.88;5035012;28;20449;-82
2023/01/01 05:03:21;;;;;;;5.20;1.20;;;;;;;13.56;59.23;100934.84;5034459;28;20480;-83
2023/01/01 05:05:47;;;;;;;6.47;1.45;;;;;;;13.54;59.21;100926.22;5033606;28;20025;-83
2023/01/01 05:08:12;;;;;;;5.28;1.20;;;;;;;13.54;59.38;100941.91;5030719;28;20025;-82
2023/01/01 05:10:38;;;;;;;6.70;1.55;;;;;;;13.53;59.51;100945.41;5032495;28;20148;-83
2023/01/01 05:13:07;;;;;;;3.05;1.40;;;;;;;13.53;59.51;100948.91;5034980;28;20030;-83
2023/01/01 05:15:34;;;;;;;6.18;1.30;;;;;;;13.49;60.02;100961.22;5033791;28;20040;-82
2023/01/01 05:18:00;;;;;;;3.42;1.35;;;;;;;13.49;59.73;100960.38;5034402;28;20025;-83
2023/01/01 05:20:25;;;;;;;5.78;1.50;;;;;;;13.46;60.48;100955.25;5035214;28;20049;-84
2023/01/01 05:22:52;;;;;;;7.13;1.35;;;;;;;13.45;60.25;100962.25;5032452;28;20025;-83
2023/01/01 05:25:17;;;;;;;5.47;1.40;;;;;;;13.43;60.21;100966.66;5031210;28;20393;-83
2023/01/01 05:27:42;;;;;;;5.40;1.60;;;;;;;13.44;60.39;100984.06;5033924;28;20033;-82
2023/01/01 05:30:08;;;;;;;7.75;1.30;;;;;;;13.41;60.72;100992.00;5032953;28;20025;-82
2023/01/01 05:32:35;;;;;;;5.43;1.35;;;;;;;13.40;60.98;101003.38;5034190;28;20033;-82
2023/01/01 05:35:00;;;;;;;5.55;1.27;;;;;;;13.39;60.62;101006.84;5033561;28;20496;-83
2023/01/01 05:37:26;;;;;;;4.80;1.40;;;;;;;13.40;60.95;101008.59;5032391;28;20029;-83
2023/01/01 05:39:51;;;;;;;5.97;1.67;;;;;;;13.42;60.77;101014.63;5033986;28;20103;-83
2023/01/01 05:42:17;;;;;;;6.22;1.42;;;;;;;13.39;61.23;101022.53;5033597;28;20431;-83
2023/01/01 05:44:43;;;;;;;8.68;1.83;;;;;;;13.36;61.59;101014.78;5033764;28;20038;-83
2023/01/01 05:47:08;;;;;;;7.07;1.33;;;;;;;13.36;61.32;101020.00;5030318;28;20030;-83
2023/01/01 05:49:35;;;;;;;6.38;1.40;;;;;;;13.35;61.65;101005.25;5032694;28;20112;-83
2023/01/01 05:52:00;;;;;;;5.45;1.40;;;;;;;13.35;61.71;101023.53;5034138;28;20029;-83
2023/01/01 05:54:26;;;;;;;5.43;1.42;;;;;;;13.34;62.03;101027.91;5033466;28;20029;-84
2023/01/01 05:56:51;;;;;;;3.70;1.20;;;;;;;13.30;62.60;101031.53;5028746;28;20033;-82
2023/01/01 05:59:17;;;;;;;6.05;1.70;;;;;;;13.25;62.21;101027.38;5034044;28;20033;-83
2023/01/01 06:01:42;;;;;;;6.88;1.30;;;;;;;13.26;62.74;101042.16;5040638;28;20330;-83
2023/01/01 06:04:08;;;;;;;3.92;1.30;;;;;;;13.23;63.00;101052.69;5032431;28;20049;-82
2023/01/01 06:06:33;;;;;;;5.38;1.40;;;;;;;13.20;63.05;101058.88;5031207;28;20045;-82
2023/01/01 06:09:01;;;;;;;7.10;1.33;;;;;;;13.18;63.29;101061.53;5038681;28;20476;-82
2023/01/01 06:11:27;;;;;;;3.75;1.48;;;;;;;13.14;63.16;101065.19;5035231;28;20104;-82
2023/01/01 06:13:53;;;;;;;5.38;1.20;;;;;;;13.14;63.19;101070.41;5037605;28;20503;-82
2023/01/01 06:16:19;;;;;;;4.93;1.23;;;;;;;13.11;62.89;101065.28;5033868;28;20037;-82
2023/01/01 06:18:44;;;;;;;7.95;1.30;;;;;;;13.10;63.58;101084.47;5031711;28;20079;-83
2023/01/01 06:21:15;;;;;;;6.05;1.45;;;;;;;13.09;63.82;101077.53;5034267;28;20033;-82
2023/01/01 06:23:41;;;;;;;4.60;1.38;;;;;;;13.08;63.93;101073.22;5031091;28;20071;-82
2023/01/01 06:26:12;;;;;;;5.07;1.33;;;;;;;13.05;63.99;101074.16;5033139;28;20071;-81
2023/01/01 06:28:38;;;;;;;4.20;1.40;;;;;;;13.04;63.96;101079.41;5031017;28;20038;-82
2023/01/01 06:31:06;;;;;;;5.47;1.30;;;;;;;13.02;64.06;101078.63;5028007;28;20072;-81
2023/01/01 06:33:31;;;;;;;3.72;1.42;;;;;;;13.02;64.09;101096.91;5027923;28;20120;-82
2023/01/01 06:36:03;;;;;;;5.32;1.27;;;;;;;13.01;64.09;101103.91;5032127;28;20552;-82
2023/01/01 06:38:33;;;;;;;7.82;1.38;;;;;;;13.02;64.90;101117.78;5031491;28;20029;-83
2023/01/01 06:41:05;;;;;;;5.07;1.48;;;;;;;13.03;65.18;101137.78;5027794;28;20346;-81
2023/01/01 06:43:32;;;;;;;7.22;1.50;;;;;;;12.97;67.46;101156.28;5020797;28;20037;-82
2023/01/01 06:46:09;;;;;;;5.72;1.23;;;;;;;12.86;69.96;101151.38;5023844;28;20488;-82
2023/01/01 06:48:35;;;;;;;4.90;1.30;;;;;;;12.73;71.88;101174.38;5026316;28;20457;-82
2023/01/01 06:51:09;;;;;;;3.65;1.20;;;;;;;12.58;72.74;101186.97;5024735;28;20032;-82
2023/01/01 06:53:34;;;;;;;5.00;1.40;;;;;;;12.48;72.84;101175.06;5024109;28;20039;-83
2023/01/01 06:56:00;;;;;;;3.17;1.17;;;;;;;12.38;73.14;101174.47;5024637;28;20539;-83
2023/01/01 06:58:25;;;;;;;5.70;1.67;;;;;;;12.30;73.58;101172.09;5025542;28;20030;-83
2023/01/01 07:00:50;;;;;;;3.40;1.60;;;;;;;12.21;74.12;101174.97;5021497;28;20029;-82
2023/01/01 07:03:16;;;;;;;4.97;1.75;;;;;;;12.14;74.65;101178.63;5023349;28;20072;-83
2023/01/01 07:05:41;;;;;;;4.63;1.90;;;;;;;12.07;74.48;101175.31;5020431;28;20033;-82
2023/01/01 07:08:06;;;;;;;7.53;2.10;;;;;;;12.02;75.18;101186.78;5024466;28;20029;-83
2023/01/01 07:10:31;;;;;;;6.18;1.95;;;;;;;11.96;75.33;101186.00;5024018;28;20477;-82
2023/01/01 07:12:57;;;;;;;8.13;2.40;;;;;;;11.92;75.79;101202.63;5023422;28;20159;-83
2023/01/01 07:15:22;;;;;;;5.97;2.30;;;;;;;11.88;76.05;101200.13;5022023;28;20033;-82
2023/01/01 07:17:47;;;;;;;6.20;2.17;;;;;;;11.81;76.68;101189.00;5024283;28;20041;-82
2023/01/01 07:20:13;;;;;;;6.15;2.30;;;;;;;11.78;77.01;101209.97;5022668;28;20041;-83
2023/01/01 07:22:39;;;;;;;7.93;2.95;;;;;;;11.72;77.19;101216.16;5025343;28;20068;-83
2023/01/01 07:25:06;;;;;;;5.22;2.35;;;;;;;11.64;78.63;101216.34;5022749;28;20045;-83
2023/01/01 07:27:31;;;;;;;7.03;2.22;;;;;;;11.59;78.80;101220.81;5023679;28;20041;-82
2023/01/01 07:29:56;;;;;;;4.45;1.95;;;;;;;11.56;78.63;101210.47;5023261;28;20083;-82
2023/01/01 07:32:22;;;;;;;6.65;2.22;;;;;;;11.49;79.48;101219.31;5022335;28;20040;-83
2023/01/01 07:34:47;;;;;;;4.82;1.95;;;;;;;11.45;79.76;101228.97;5020444;28;20033;-83
2023/01/01 07:37:12;;;;;;;6.15;1.90;;;;;;;11.42;79.76;101236.00;5023674;28;21311;-82
2023/01/01 07:39:38;;;;;;;5.78;1.70;;;;;;;11.41;79.50;101226.47;5024567;28;20025;-81
2023/01/01 07:42:03;;;;;;;3.83;1.52;;;;;;;11.38;78.55;101245.59;5023987;28;20037;-83
2023/01/01 07:44:28;;;;;;;4.43;1.60;;;;;;;11.36;78.73;101232.63;5024637;28;20468;-82
2023/01/01 07:47:19;;;;;;;5.47;1.42;;;;;;;11.35;77.34;101241.34;5025109;28;20048;-82
2023/01/01 07:49:44;;;;;;;4.93;1.50;;;;;;;11.33;78.02;101239.66;5024963;28;20033;-83
2023/01/01 07:52:10;;;;;;;5.20;1.27;;;;;;;11.32;77.91;101248.38;5023515;28;20358;-82
2023/01/01 07:54:35;;;;;;;4.47;1.13;;;;;;;11.29;78.65;101244.06;5025317;28;20033;-82
2023/01/01 07:57:00;;;;;;;4.30;1.10;;;;;;;11.29;78.34;101258.84;5022958;28;20083;-81
2023/01/01 07:59:26;;;;;;;2.50;1.13;;;;;;;11.29;77.38;101248.44;5024692;28;20033;-83
2023/01/01 08:01:51;;;;;;;3.15;0.95;;;;;;;11.25;78.12;101276.31;5024370;28;20037;-82
2023/01/01 08:04:16;;;;;;;2.92;0.82;;;;;;;11.24;78.86;101278.03;5021731;28;20033;-82
2023/01/01 08:06:41;;;;;;;3.05;0.90;;;;;;;11.20;79.28;101285.94;5026029;28;20029;-82
2023/01/01 08:09:07;;;;;;;4.80;1.00;;;;;;;11.18;80.20;101292.94;5023655;28;20033;-82
2023/01/01 08:11:32;;;;;;;4.10;0.90;;;;;;;11.15;80.38;101306.00;5028657;28;20038;-83
2023/01/01 08:13:57;;;;;;;3.20;1.00;;;;;;;11.12;80.92;101314.75;5027346;28;20449;-81
2023/01/01 08:16:22;;;;;;;2.85;0.90;;;;;;;11.11;81.15;101322.59;5028589;28;20033;-81
2023/01/01 08:18:48;;;;;;;5.10;1.30;;;;;;;11.11;81.34;101327.78;5030064;28;20025;-81
2023/01/01 08:21:13;;;;;;;3.67;1.08;;;;;;;11.10;82.65;101346.94;5028158;28;20021;-82
2023/01/01 08:23:38;;;;;;;6.25;1.00;;;;;;;11.06;83.55;101339.19;5028424;28;20033;-82
2023/01/01 08:26:03;;;;;;;4.60;0.90;;;;;;;11.04;84.03;101353.97;5028590;28;20033;-81
2023/01/01 08:28:29;;;;;;;5.43;1.10;;;;;;;10.98;84.67;101343.66;5029858;28;20033;-82
2023/01/01 08:30:55;;;;;;;3.95;1.05;;;;;;;10.91;85.21;101362.91;5026933;28;20029;-85
2023/01/01 08:33:21;;;;;;;5.45;1.20;;;;;;;10.87;85.42;101349.06;5028594;28;20041;-84
2023/01/01 08:35:47;;;;;;;3.83;0.95;;;;;;;10.86;85.39;101347.34;5028648;28;20099;-83
2023/01/01 08:38:13;;;;;;;4.65;0.93;;;;;;;10.83;85.89;101350.03;5030140;28;20029;-83
2023/01/01 08:40:38;;;;;;;5.03;1.13;;;;;;;10.82;85.77;101348.31;5030692;28;20029;-82
2023/01/01 08:43:04;;;;;;;5.20;1.30;;;;;;;10.80;85.89;101350.09;5029739;28;20112;-82
2023/01/01 08:45:29;;;;;;;5.35;1.10;;;;;;;10.78;85.72;101342.28;5026620;28;20113;-82
2023/01/01 08:47:55;;;;;;;5.43;1.20;;;;;;;10.77;86.06;101350.16;5029361;28;20018;-82
2023/01/01 08:50:20;;;;;;;4.05;1.20;;;;;;;10.74;86.37;101360.59;5026294;28;20184;-82
2023/01/01 08:52:45;;;;;;;6.32;1.30;;;;;;;10.73;86.63;101369.28;5028230;28;20078;-82
2023/01/01 08:55:11;;;;;;;3.88;1.13;;;;;;;10.73;86.73;101370.16;5027729;28;20765;-83
2023/01/01 08:57:36;;;;;;;4.55;1.13;;;;;;;10.73;86.99;101372.78;5024889;28;20491;-83
2023/01/01 09:00:02;;;;;;;4.30;1.10;;;;;;;10.71;87.44;101376.25;5027426;28;20025;-82
2023/01/01 09:02:27;;;;;;;5.07;1.05;;;;;;;10.72;87.91;101391.00;5027685;28;20084;-81
2023/01/01 09:04:52;;;;;;;4.82;1.10;;;;;;;10.72;87.99;101389.28;5027103;28;20051;-81
2023/01/01 09:07:18;;;;;;;5.63;1.20;;;;;;;10.72;88.07;101378.84;5027134;28;21031;-81
2023/01/01 09:09:43;;;;;;;4.80;1.63;;;;;;;10.70;88.29;101365.00;5025276;28;20033;-82
2023/01/01 09:12:14;;;;;;;4.32;1.20;;;;;;;10.71;88.56;101363.25;5027972;28;20052;-82
2023/01/01 09:14:39;;;;;;;5.63;1.20;;;;;;;10.69;88.64;101358.09;5025353;28;20484;-83
2023/01/01 09:17:04;;;;;;;4.45;1.17;;;;;;;10.69;88.86;101360.69;5025949;28;20037;-81
2023/01/01 09:19:30;;;;;;;4.40;1.20;;;;;;;10.68;89.03;101366.78;5026342;28;20124;-83
2023/01/01 09:21:55;;;;;;;3.92;1.38;;;;;;;10.69;89.48;101373.69;5027239;28;20025;-83
2023/01/01 09:24:21;;;;;;;3.75;1.20;;;;;;;10.67;89.68;101367.66;5025792;28;20112;-81
2023/01/01 09:26:46;;;;;;;6.13;1.30;;;;;;;10.67;89.94;101369.41;5027095;28;20037;-81
2023/01/01 09:29:11;;;;;;;3.05;1.10;;;;;;;10.66;89.76;101367.69;5024979;28;20041;-81
2023/01/01 09:31:36;;;;;;;3.72;1.27;;;;;;;10.67;90.11;101365.06;5026372;28;20061;-83
2023/01/01 09:34:02;;;;;;;3.28;1.30;;;;;;;10.67;90.11;101369.41;5026744;28;20025;-81
2023/01/01 09:36:30;;;;;;;5.68;1.40;;;;;;;10.66;90.08;101378.97;5027267;28;20072;-81
2023/01/01 09:38:58;;;;;;;3.92;1.50;;;;;;;10.64;90.14;101375.53;5025359;28;20021;-81
2023/01/01 09:41:32;;;;;;;6.03;1.58;;;;;;;10.64;90.28;101378.13;5027171;28;20116;-82
2023/01/01 09:44:16;;;;;;;4.10;1.50;;;;;;;10.65;90.19;101382.44;5025710;28;20029;-82
2023/01/01 09:46:41;;;;;;;6.18;1.83;;;;;;;10.65;90.54;101387.66;5027389;28;20056;-82
2023/01/01 09:49:16;;;;;;;7.25;1.52;;;;;;;10.65;90.46;101387.66;5026095;28;20473;-81
2023/01/01 09:51:43;;;;;;;4.53;1.52;;;;;;;10.66;90.55;101375.50;5027455;28;20587;-83
2023/01/01 09:54:27;;;;;;;6.93;1.58;;;;;;;10.66;90.36;101383.31;5025296;28;20036;-82
2023/01/01 09:56:56;;;;;;;6.75;1.70;;;;;;;10.64;90.72;101388.53;5025554;28;20076;-82
2023/01/01 09:59:22;;;;;;;5.18;1.65;;;;;;;10.63;90.74;101398.09;5026506;28;20056;-82
2023/01/01 10:02:30;;;;;;;4.78;1.52;;;;;;;10.61;90.72;101401.59;5026085;28;20044;-81
2023/01/01 10:05:10;;;;;;;3.38;1.33;;;;;;;10.60;90.68;101389.47;5021647;28;20080;-82
2023/01/01 10:07:45;;;;;;;3.03;1.63;;;;;;;10.56;90.97;101377.41;5024022;28;20064;-82
2023/01/01 10:10:48;;;;;;;3.15;1.42;;;;;;;10.54;90.87;101381.78;5022871;28;20054;-82
2023/01/01 10:13:37;;;;;;;5.18;1.42;;;;;;;10.53;90.49;101388.72;5020835;28;20033;-81
2023/01/01 10:16:35;;;;;;;5.63;1.50;;;;;;;10.52;90.92;101383.53;5022229;28;20025;-82
2023/01/01 10:19:12;;;;;;;4.07;1.50;;;;;;;10.51;91.17;101389.63;5027207;28;20036;-82
2023/01/01 10:21:42;;;;;;;3.65;1.58;;;;;;;10.47;91.28;101379.25;5024003;28;20064;-82
2023/01/01 10:24:39;;;;;;;5.57;1.67;;;;;;;10.50;90.88;101367.97;5022519;28;20033;-82
2023/01/01 10:27:05;;;;;;;4.60;1.80;;;;;;;10.52;91.38;101386.16;5013433;28;20585;-82
2023/01/01 10:29:45;;;;;;;5.88;2.10;;;;;;;10.50;91.81;101370.56;5023163;28;20520;-81
2023/01/01 10:32:26;;;;;;;5.90;2.05;;;;;;;10.52;91.74;101386.16;5020965;28;20492;-82
2023/01/01 10:34:51;;;;;;;5.03;2.20;;;;;;;10.52;91.30;101386.16;5019187;28;20037;-82
2023/01/01 10:37:17;;;;;;;3.65;1.90;;;;;;;10.54;91.31;101392.19;5022954;28;20048;-82
2023/01/01 10:39:45;;;;;;;6.32;2.47;;;;;;;10.57;91.32;101392.13;5022318;28;20021;-81
2023/01/01 10:42:13;;;;;;;5.95;2.42;;;;;;;10.57;91.11;101384.34;5021653;28;20036;-81
2023/01/01 10:44:39;;;;;;;7.55;2.50;;;;;;;10.57;91.03;101379.97;5022923;28;20500;-79
2023/01/01 10:47:21;;;;;;;6.63;2.30;;;;;;;10.59;90.72;101387.78;5023802;28;20025;-80
2023/01/01 10:50:02;;;;;;;5.55;2.25;;;;;;;10.62;90.47;101393.78;5023841;28;20037;-81
2023/01/01 10:52:37;;;;;;;6.85;2.42;;;;;;;10.66;90.54;101384.16;5023249;28;20021;-81
2023/01/01 10:55:03;;;;;;;4.03;2.20;;;;;;;10.71;90.60;101387.56;5021005;28;20044;-80
2023/01/01 10:57:30;;;;;;;6.25;2.47;;;;;;;10.76;90.05;101393.50;5021481;28;20040;-81
2023/01/01 11:00:09;;;;;;;6.68;2.67;;;;;;;10.80;89.60;101390.84;5023517;28;20024;-81
2023/01/01 11:02:35;;;;;;;5.03;2.28;;;;;;;10.83;89.14;101391.69;5022668;28;20044;-81
2023/01/01 11:05:17;;;;;;;5.00;2.17;;;;;;;10.91;88.80;101391.53;5019403;28;20030;-80
2023/01/01 11:07:43;;;;;;;5.63;1.92;;;;;;;10.99;88.23;101394.00;5020398;28;20129;-80
2023/01/01 11:10:21;;;;;;;5.75;2.08;;;;;;;11.06;88.03;101392.97;5021714;28;20160;-81
2023/01/01 11:12:47;;;;;;;7.28;2.00;;;;;;;11.14;87.65;101401.53;5020210;28;20021;-82
2023/01/01 11:15:22;;;;;;;6.80;2.20;;;;;;;11.20;86.64;101396.19;5023409;28;20112;-81
2023/01/01 11:17:48;;;;;;;5.22;1.95;;;;;;;11.28;86.45;101400.38;5022920;28;20087;-81
2023/01/01 11:20:19;;;;;;;6.55;2.00;;;;;;;11.33;85.43;101402.00;5019843;28;20046;-81
2023/01/01 11:22:50;;;;;;;7.28;1.92;;;;;;;11.39;84.94;101412.31;5022796;28;20041;-81
2023/01/01 11:25:25;;;;;;;6.93;1.88;;;;;;;11.46;85.08;101420.00;5021109;28;20025;-81
2023/01/01 11:27:51;;;;;;;5.13;1.55;;;;;;;11.49;84.43;101412.13;5022249;28;20127;-82
2023/01/01 11:30:25;;;;;;;6.50;1.80;;;;;;;11.54;83.36;101420.72;5017771;28;20539;-82
2023/01/01 11:33:03;;;;;;;7.03;2.08;;;;;;;11.59;83.65;101411.06;5020756;28;20033;-81
2023/01/01 11:35:31;;;;;;;6.03;2.10;;;;;;;11.64;83.13;101419.63;5021508;28;20025;-81
2023/01/01 11:37:58;;;;;;;5.65;1.45;;;;;;;11.67;82.51;101403.09;5021941;28;20028;-82
2023/01/01 11:40:34;;;;;;;8.10;2.53;;;;;;;11.73;82.45;101394.28;5021663;28;20025;-82
2023/01/01 11:43:02;;;;;;;8.20;1.80;;;;;;;11.76;82.68;101399.41;5023707;28;20766;-80